Time;durP1;ratioP1;P1;durP2;ratioP2;P2;SDS_P1;SDS_P2;PMS_P1;PMS_P2;Temp;Humidity;BMP_temperature;BMP_pressure;BME280_temperature;BME280_humidity;BME280_pressure;Samples;Min_cycle;Max_cycle;Signal;HPM_P1;HPM_P2
2022/11/03 00:01:08;;;;;;;8.07;7.27;;;7.90;1.00;;;;;;6289218;28;20327;-53
2022/11/03 00:04:13;;;;;;;7.53;6.80;;;7.70;1.00;;;;;;6284513;28;20245;-54
2022/11/03 00:07:20;;;;;;;7.40;6.77;;;7.70;1.00;;;;;;6291185;28;20233;-54
2022/11/03 00:10:24;;;;;;;7.57;6.37;;;7.90;1.00;;;;;;6292777;28;20232;-53
2022/11/03 00:13:27;;;;;;;8.17;6.43;;;8.00;1.00;;;;;;6283982;28;20241;-54
2022/11/03 00:16:30;;;;;;;8.00;6.90;;;7.80;1.00;;;;;;6284122;28;20226;-55
2022/11/03 00:19:36;;;;;;;6.90;6.37;;;7.90;1.00;;;;;;6284028;28;20312;-55
2022/11/03 00:22:39;;;;;;;6.87;6.10;;;7.80;1.00;;;;;;6285446;28;20242;-55
2022/11/03 00:25:45;;;;;;;7.73;7.00;;;7.90;1.00;;;;;;6285130;28;20243;-54
2022/11/03 00:28:50;;;;;;;7.37;6.57;;;7.70;1.00;;;;;;6283934;28;20761;-53
2022/11/03 00:31:52;;;;;;;9.67;7.27;;;7.70;1.00;;;;;;6291874;28;20237;-54
2022/11/03 00:34:56;;;;;;;7.90;6.80;;;7.60;1.00;;;;;;6289790;28;20249;-54
2022/11/03 00:37:59;;;;;;;7.47;6.73;;;8.00;1.00;;;;;;6294105;28;20228;-55
2022/11/03 00:41:06;;;;;;;10.80;6.90;;;7.80;1.00;;;;;;6302308;28;20724;-54
2022/11/03 00:44:09;;;;;;;9.13;6.37;;;7.70;1.00;;;;;;6289106;28;20245;-55
2022/11/03 00:47:12;;;;;;;7.70;6.87;;;7.70;1.00;;;;;;6285314;28;20233;-53
2022/11/03 00:50:15;;;;;;;7.40;6.73;;;7.70;1.00;;;;;;6285383;28;20237;-54
2022/11/03 00:53:18;;;;;;;8.13;7.43;;;7.70;1.00;;;;;;6283827;28;20241;-55
2022/11/03 00:56:24;;;;;;;8.10;7.37;;;7.60;1.00;;;;;;6288120;28;20233;-53
2022/11/03 00:59:27;;;;;;;9.37;8.47;;;7.90;1.00;;;;;;6299312;28;20315;-54
2022/11/03 01:02:29;;;;;;;7.83;7.20;;;7.80;1.00;;;;;;6288198;28;20264;-56
2022/11/03 01:08:53;;;;;;;9.90;7.67;;;7.80;1.00;;;;;;6301655;28;20232;-53
2022/11/03 01:11:59;;;;;;;10.10;8.50;;;7.50;1.00;;;;;;6296773;28;20239;-54
2022/11/03 01:15:02;;;;;;;9.43;8.50;;;7.50;1.00;;;;;;6311105;28;20236;-54
2022/11/03 01:18:05;;;;;;;16.77;8.80;;;7.40;1.00;;;;;;6313352;28;20610;-55
2022/11/03 01:21:08;;;;;;;8.30;7.50;;;7.40;1.00;;;;;;6294095;28;20237;-53
2022/11/03 01:24:11;;;;;;;8.40;7.70;;;7.50;1.00;;;;;;6289536;28;20264;-55
2022/11/03 01:27:17;;;;;;;8.47;7.67;;;7.40;1.00;;;;;;6288631;28;20252;-55
2022/11/03 01:30:20;;;;;;;8.10;7.30;;;7.60;1.00;;;;;;6288887;28;20237;-55
2022/11/03 01:33:23;;;;;;;9.47;7.97;;;7.50;1.00;;;;;;6296500;28;20632;-54
2022/11/03 01:36:26;;;;;;;8.07;7.40;;;7.20;1.00;;;;;;6287624;28;20242;-54
2022/11/03 01:39:29;;;;;;;8.07;7.37;;;7.50;1.00;;;;;;6293325;28;20248;-54
2022/11/03 01:42:33;;;;;;;7.03;6.47;;;7.20;1.00;;;;;;6307985;28;20241;-55
2022/11/03 01:45:37;;;;;;;7.40;6.70;;;7.40;1.00;;;;;;6312045;28;20240;-54
2022/11/03 01:48:45;;;;;;;9.73;8.17;;;7.30;1.00;;;;;;6303850;28;20233;-55
2022/11/03 01:51:54;;;;;;;10.77;7.47;;;7.30;1.00;;;;;;6288297;28;20229;-55
2022/11/03 01:55:01;;;;;;;9.03;8.13;;;7.30;1.00;;;;;;6288455;28;20236;-55
2022/11/03 01:58:10;;;;;;;11.23;7.33;;;7.20;1.00;;;;;;6296085;28;20236;-54
2022/11/03 02:01:13;;;;;;;10.50;8.60;;;7.00;1.00;;;;;;6278401;28;20237;-52
2022/11/03 02:04:22;;;;;;;8.13;7.33;;;7.00;1.00;;;;;;6286554;28;20248;-55
2022/11/03 02:07:30;;;;;;;11.30;7.87;;;7.00;1.00;;;;;;6311595;28;20239;-54
2022/11/03 02:10:33;;;;;;;7.93;7.23;;;7.20;1.00;;;;;;6304139;28;20237;-55
2022/11/03 02:13:37;;;;;;;10.53;7.13;;;7.10;1.00;;;;;;6304679;28;20666;-54
2022/11/03 02:16:43;;;;;;;9.23;6.90;;;7.20;1.00;;;;;;6287737;28;20240;-55
2022/11/03 02:19:55;;;;;;;7.57;6.80;;;6.90;1.00;;;;;;6286817;28;20233;-55
2022/11/03 02:23:17;;;;;;;11.70;7.47;;;6.90;1.00;;;;;;6286857;28;20282;-61
2022/11/03 02:26:21;;;;;;;9.43;7.17;;;6.90;1.00;;;;;;6284860;28;20491;-54
2022/11/03 02:29:24;;;;;;;9.87;7.40;;;7.10;1.00;;;;;;6286008;28;20241;-55
2022/11/03 02:32:33;;;;;;;8.50;7.53;;;7.10;1.00;;;;;;6287465;28;20237;-55
2022/11/03 02:35:40;;;;;;;6.80;6.13;;;6.70;1.00;;;;;;6303611;28;20236;-55
2022/11/03 02:38:48;;;;;;;9.00;6.90;;;6.90;1.00;;;;;;6301529;28;20244;-54
2022/11/03 02:41:53;;;;;;;10.77;7.10;;;7.00;1.00;;;;;;6297613;28;20238;-53
2022/11/03 02:45:02;;;;;;;7.70;6.93;;;7.00;1.00;;;;;;6310538;28;20232;-53
2022/11/03 02:48:06;;;;;;;12.57;7.57;;;6.80;1.00;;;;;;6306754;28;20233;-54
2022/11/03 02:51:09;;;;;;;7.47;6.77;;;6.70;1.00;;;;;;6308740;28;20241;-55
2022/11/03 02:54:20;;;;;;;9.23;6.50;;;7.00;1.00;;;;;;6297952;28;20404;-54
2022/11/03 02:57:29;;;;;;;17.17;5.87;;;7.00;1.00;;;;;;6286908;28;20239;-52
2022/11/03 03:00:38;;;;;;;6.97;6.43;;;6.90;1.00;;;;;;6293696;28;20519;-54
2022/11/03 03:03:46;;;;;;;6.80;6.20;;;6.80;1.00;;;;;;6286086;28;20740;-55
2022/11/03 03:06:54;;;;;;;6.70;6.10;;;6.80;1.00;;;;;;6288059;28;20347;-56
2022/11/03 03:10:01;;;;;;;9.13;6.63;;;6.80;1.00;;;;;;6297621;28;20237;-55
2022/11/03 03:13:09;;;;;;;7.43;6.33;;;7.00;1.00;;;;;;6302847;28;20797;-54
2022/11/03 03:16:17;;;;;;;10.53;6.47;;;7.00;1.00;;;;;;6306241;27;20270;-55
2022/11/03 03:19:31;;;;;;;10.10;5.93;;;7.30;1.00;;;;;;6305588;28;20244;-53
2022/11/03 03:22:43;;;;;;;6.50;5.90;;;7.30;1.00;;;;;;6286490;28;20687;-55
2022/11/03 03:25:50;;;;;;;9.37;6.63;;;7.40;1.00;;;;;;6284935;28;20233;-53
2022/11/03 03:29:06;;;;;;;8.20;5.63;;;7.20;1.00;;;;;;6285122;28;20757;-53
2022/11/03 03:32:10;;;;;;;6.77;6.13;;;7.20;1.00;;;;;;6288180;28;24953;-54
2022/11/03 03:35:18;;;;;;;8.77;6.37;;;6.90;1.00;;;;;;6301320;28;20233;-53
2022/11/03 03:38:24;;;;;;;11.77;6.43;;;7.20;1.00;;;;;;6307925;28;20328;-55
2022/11/03 03:41:31;;;;;;;7.03;6.30;;;7.30;1.00;;;;;;6301763;28;20643;-53
2022/11/03 03:44:38;;;;;;;6.73;6.17;;;6.80;1.00;;;;;;6284890;28;20704;-55
2022/11/03 03:47:41;;;;;;;7.57;6.63;;;6.90;1.00;;;;;;6285337;28;20263;-53
2022/11/03 03:50:46;;;;;;;6.60;6.00;;;7.20;1.00;;;;;;6289521;28;20271;-55
2022/11/03 03:53:50;;;;;;;6.43;5.87;;;6.90;1.00;;;;;;6309158;28;20240;-55
2022/11/03 03:56:58;;;;;;;7.80;6.27;;;7.00;1.00;;;;;;6302069;28;20804;-57
2022/11/03 04:00:03;;;;;;;6.70;6.13;;;7.10;1.00;;;;;;6291885;28;20244;-54
2022/11/03 04:03:08;;;;;;;7.57;5.87;;;6.90;1.00;;;;;;6284073;28;20260;-54
2022/11/03 04:06:11;;;;;;;6.37;5.97;;;6.90;1.00;;;;;;6284816;28;20315;-53
2022/11/03 04:09:14;;;;;;;7.13;6.53;;;6.90;1.00;;;;;;6298382;28;20233;-53
2022/11/03 04:22:22;;;;;;;8.43;5.70;;;6.70;1.00;;;;;;6284267;28;20234;-54
2022/11/03 04:25:25;;;;;;;7.90;6.20;;;6.70;1.00;;;;;;6284762;28;20375;-53
2022/11/03 04:28:29;;;;;;;6.80;6.20;;;6.70;1.00;;;;;;6279820;28;20229;-53
2022/11/03 04:31:36;;;;;;;6.40;5.80;;;6.70;1.00;;;;;;6282241;28;20256;-54
2022/11/03 04:34:38;;;;;;;9.57;6.73;;;6.60;1.00;;;;;;6289610;28;20324;-53
2022/11/03 04:37:41;;;;;;;7.30;6.30;;;6.70;1.00;;;;;;6294828;28;20313;-55
2022/11/03 04:40:53;;;;;;;8.27;7.00;;;6.60;1.00;;;;;;6292912;28;20233;-55
2022/11/03 04:43:57;;;;;;;10.13;7.37;;;6.90;1.00;;;;;;6295157;28;20957;-54
2022/11/03 04:47:01;;;;;;;7.13;6.33;;;6.50;1.00;;;;;;6292405;28;20726;-55
2022/11/03 04:50:11;;;;;;;9.93;6.87;;;6.40;1.00;;;;;;6290822;28;20609;-54
2022/11/03 04:53:16;;;;;;;10.40;6.87;;;6.40;1.00;;;;;;6299581;28;20237;-54
2022/11/03 04:56:22;;;;;;;10.20;7.73;;;6.40;1.00;;;;;;6305988;28;20862;-56
2022/11/03 04:59:24;;;;;;;9.90;7.40;;;6.50;1.00;;;;;;6293166;28;20471;-55
2022/11/03 05:02:29;;;;;;;7.37;6.80;;;6.40;1.00;;;;;;6298397;28;20260;-53
2022/11/03 05:05:32;;;;;;;8.90;6.53;;;6.40;1.00;;;;;;6283955;28;20629;-54
2022/11/03 05:08:35;;;;;;;8.57;6.43;;;6.50;1.00;;;;;;6290949;28;20263;-54
2022/11/03 05:11:41;;;;;;;6.90;6.40;;;6.10;1.00;;;;;;6299785;28;20235;-54
2022/11/03 05:14:44;;;;;;;7.17;6.57;;;6.40;1.00;;;;;;6301438;28;20252;-56
2022/11/03 05:17:49;;;;;;;6.77;6.20;;;6.20;1.00;;;;;;6297947;28;20228;-55
2022/11/03 05:20:57;;;;;;;12.40;7.57;;;6.10;1.00;;;;;;6297777;28;20729;-55
2022/11/03 05:24:09;;;;;;;7.87;6.50;;;6.30;1.00;;;;;;6303965;28;20344;-55
2022/11/03 05:27:19;;;;;;;7.43;6.70;;;6.20;1.00;;;;;;6288133;28;20228;-55
2022/11/03 05:30:22;;;;;;;9.93;6.63;;;5.90;1.00;;;;;;6283371;28;20249;-53
2022/11/03 05:33:31;;;;;;;12.13;7.10;;;5.80;1.00;;;;;;6303356;28;20244;-53
2022/11/03 05:36:34;;;;;;;7.93;6.67;;;6.20;1.00;;;;;;6287877;28;20237;-53
2022/11/03 05:39:43;;;;;;;7.40;6.80;;;5.90;1.00;;;;;;6307938;28;20620;-54
2022/11/03 05:42:48;;;;;;;13.57;7.17;;;6.10;1.00;;;;;;6306376;28;20248;-55
2022/11/03 05:45:55;;;;;;;7.40;6.77;;;6.00;1.00;;;;;;6296932;28;20739;-54
2022/11/03 05:49:02;;;;;;;11.37;6.70;;;6.10;1.00;;;;;;6291887;28;20229;-54
2022/11/03 05:52:12;;;;;;;9.03;7.43;;;6.00;1.00;;;;;;6296205;28;20260;-55
2022/11/03 05:55:24;;;;;;;8.57;7.23;;;6.00;1.00;;;;;;6292350;28;20230;-54
2022/11/03 05:58:31;;;;;;;7.67;6.67;;;5.90;1.00;;;;;;6299471;28;20233;-54
2022/11/03 06:01:36;;;;;;;11.93;7.87;;;5.90;1.00;;;;;;6300514;28;20236;-54
2022/11/03 06:04:41;;;;;;;9.93;7.30;;;6.00;1.00;;;;;;6300412;28;20222;-55
2022/11/03 06:07:52;;;;;;;8.90;6.70;;;5.80;1.00;;;;;;6302521;28;20243;-54
2022/11/03 06:10:58;;;;;;;9.40;7.80;;;5.90;1.00;;;;;;6306501;28;20228;-53
2022/11/03 06:14:01;;;;;;;10.67;7.03;;;6.00;1.00;;;;;;6302478;28;20247;-53
2022/11/03 06:17:06;;;;;;;10.67;7.37;;;5.80;1.00;;;;;;6303092;28;20228;-54
2022/11/03 06:20:19;;;;;;;11.13;7.30;;;5.70;1.00;;;;;;6307814;28;20225;-58
2022/11/03 06:23:22;;;;;;;13.63;8.03;;;5.90;1.00;;;;;;6301458;28;20391;-54
2022/11/03 06:26:28;;;;;;;9.30;7.67;;;5.80;1.00;;;;;;6304200;28;20721;-53
2022/11/03 06:29:33;;;;;;;8.17;7.10;;;5.90;1.00;;;;;;6287651;28;20233;-52
2022/11/03 06:32:36;;;;;;;11.43;6.93;;;6.00;1.00;;;;;;6303515;28;20475;-53
2022/11/03 06:35:40;;;;;;;9.43;6.67;;;5.90;1.00;;;;;;6310462;28;20736;-54
2022/11/03 06:38:49;;;;;;;13.57;7.00;;;5.80;1.00;;;;;;6292413;28;20240;-54
2022/11/03 06:41:52;;;;;;;11.80;7.00;;;5.80;1.00;;;;;;6305102;28;20236;-53
2022/11/03 06:44:56;;;;;;;9.67;7.30;;;5.90;1.00;;;;;;6300319;28;20390;-54
2022/11/03 06:48:01;;;;;;;7.63;6.10;;;6.00;1.00;;;;;;6298158;28;20241;-54
2022/11/03 06:51:15;;;;;;;7.50;6.80;;;6.00;1.00;;;;;;6300115;28;20237;-54
2022/11/03 06:54:18;;;;;;;7.77;6.73;;;6.10;1.00;;;;;;6306698;28;20245;-55
2022/11/03 06:57:21;;;;;;;10.90;8.17;;;6.00;1.00;;;;;;6299408;28;20248;-55
2022/11/03 07:00:27;;;;;;;12.30;7.70;;;6.20;1.00;;;;;;6294545;27;20323;-54
2022/11/03 07:03:37;;;;;;;13.43;8.10;;;6.10;1.00;;;;;;6299973;28;20753;-54
2022/11/03 07:06:42;;;;;;;12.27;7.53;;;6.00;1.00;;;;;;6294727;28;20619;-54
2022/11/03 07:09:50;;;;;;;10.20;6.77;;;6.20;1.00;;;;;;6307759;28;20267;-53
2022/11/03 07:12:55;;;;;;;10.53;7.67;;;6.10;1.00;;;;;;6304291;28;20259;-55
2022/11/03 07:15:58;;;;;;;10.07;7.30;;;6.10;1.00;;;;;;6307172;28;20236;-58
2022/11/03 07:19:03;;;;;;;10.87;7.00;;;6.20;1.00;;;;;;6290760;28;20236;-49
2022/11/03 07:22:19;;;;;;;18.03;7.83;;;6.20;1.00;;;;;;6293790;28;20245;-54
2022/11/03 07:25:22;;;;;;;7.73;6.93;;;6.50;1.00;;;;;;6295935;28;20262;-55
2022/11/03 07:28:34;;;;;;;12.00;7.33;;;6.50;1.00;;;;;;6305479;28;20232;-53
2022/11/03 07:31:37;;;;;;;15.33;8.47;;;6.70;1.00;;;;;;6297259;28;20750;-56
2022/11/03 07:34:41;;;;;;;9.60;7.10;;;6.70;1.00;;;;;;6298214;28;20518;-55
2022/11/03 07:37:46;;;;;;;10.00;7.47;;;6.90;1.00;;;;;;6287075;28;20229;-55
2022/11/03 07:40:53;;;;;;;13.60;8.03;;;7.20;1.00;;;;;;6300475;28;20226;-55
2022/11/03 07:44:00;;;;;;;8.37;7.53;;;7.10;1.00;;;;;;6296852;28;20237;-53
2022/11/03 07:47:12;;;;;;;9.53;6.80;;;7.40;1.00;;;;;;6296530;28;20241;-54
2022/11/03 07:50:15;;;;;;;10.80;7.63;;;7.50;1.00;;;;;;6296366;28;20245;-54
2022/11/03 07:53:24;;;;;;;11.87;7.77;;;7.60;1.00;;;;;;6307544;28;20243;-53
2022/11/03 07:56:33;;;;;;;14.90;8.40;;;8.00;1.00;;;;;;6291300;28;20240;-51
2022/11/03 07:59:40;;;;;;;11.13;7.60;;;7.90;1.00;;;;;;6305493;28;20233;-53
2022/11/03 08:02:49;;;;;;;8.90;7.13;;;7.90;1.00;;;;;;6284853;28;20249;-54
2022/11/03 08:05:53;;;;;;;12.80;6.70;;;8.00;1.00;;;;;;6290332;28;20490;-54
2022/11/03 08:08:59;;;;;;;12.90;7.70;;;8.30;1.00;;;;;;6300321;28;20462;-54
2022/11/03 08:12:02;;;;;;;11.10;7.20;;;8.20;1.00;;;;;;6296329;28;20627;-58
2022/11/03 08:15:06;;;;;;;16.10;9.53;;;8.30;1.00;;;;;;6291424;28;20345;-53
2022/11/03 08:18:09;;;;;;;10.20;6.40;;;8.40;1.00;;;;;;6293384;28;20233;-54
2022/11/03 08:21:12;;;;;;;10.97;7.00;;;8.50;1.00;;;;;;6305484;28;20239;-54
2022/11/03 08:24:17;;;;;;;10.47;5.80;;;8.60;1.00;;;;;;6297741;28;20267;-54
2022/11/03 08:27:20;;;;;;;9.60;6.80;;;8.60;1.00;;;;;;6291613;28;20690;-54
2022/11/03 08:30:22;;;;;;;10.17;6.70;;;8.70;1.00;;;;;;6303399;28;20615;-53
2022/11/03 08:33:25;;;;;;;11.67;6.47;;;8.90;1.00;;;;;;6303544;28;20225;-53
2022/11/03 08:36:29;;;;;;;8.03;5.83;;;9.00;1.00;;;;;;6294894;28;20248;-55
2022/11/03 08:39:34;;;;;;;8.10;5.70;;;9.10;1.00;;;;;;6293626;28;20275;-52
2022/11/03 08:42:37;;;;;;;6.73;5.30;;;9.20;1.00;;;;;;6290836;28;20241;-54
2022/11/03 08:45:40;;;;;;;6.83;5.47;;;9.30;1.00;;;;;;6306084;28;20243;-53
2022/11/03 08:48:43;;;;;;;8.70;5.50;;;9.50;1.00;;;;;;6303492;28;20237;-53
2022/11/03 08:51:46;;;;;;;8.40;4.30;;;9.50;1.00;;;;;;6299857;28;20247;-54
2022/11/03 08:54:52;;;;;;;6.53;4.80;;;9.70;1.00;;;;;;6295252;28;20240;-54
2022/11/03 08:57:55;;;;;;;7.10;5.17;;;9.80;1.00;;;;;;6302405;28;20232;-54
2022/11/03 09:00:58;;;;;;;5.30;4.80;;;9.90;1.00;;;;;;6291710;28;20236;-55
2022/11/03 09:04:01;;;;;;;5.00;4.70;;;10.00;1.00;;;;;;6300383;28;20232;-54
2022/11/03 09:07:04;;;;;;;7.17;5.40;;;10.20;1.00;;;;;;6286062;28;20225;-55
2022/11/03 09:10:10;;;;;;;7.57;4.97;;;10.30;1.00;;;;;;6293502;28;20463;-54
2022/11/03 09:13:23;;;;;;;5.80;4.50;;;10.40;1.00;;;;;;6285031;28;20246;-53
2022/11/03 09:16:26;;;;;;;6.87;4.90;;;10.60;1.00;;;;;;6293706;28;20232;-56
2022/11/03 09:19:29;;;;;;;7.80;5.20;;;10.70;1.00;;;;;;6295703;28;20236;-56
2022/11/03 09:22:32;;;;;;;7.87;4.70;;;10.80;1.00;;;;;;6298581;28;20240;-55
2022/11/03 09:25:37;;;;;;;5.17;4.63;;;10.90;1.00;;;;;;6287503;28;20237;-53
2022/11/03 09:28:40;;;;;;;8.63;5.20;;;11.10;1.00;;;;;;6295459;28;20236;-53
2022/11/03 09:31:43;;;;;;;7.77;5.00;;;11.20;1.00;;;;;;6289072;28;20243;-53
2022/11/03 09:34:46;;;;;;;5.17;4.63;;;11.20;1.00;;;;;;6292625;28;20709;-54
2022/11/03 09:37:49;;;;;;;6.87;5.33;;;11.10;1.00;;;;;;6307559;28;20247;-55
2022/11/03 09:40:55;;;;;;;9.63;4.93;;;11.20;1.00;;;;;;6305566;28;20387;-56
2022/11/03 09:43:59;;;;;;;7.80;5.17;;;11.20;1.00;;;;;;6302680;28;20232;-54
2022/11/03 09:47:04;;;;;;;4.57;4.13;;;11.40;1.00;;;;;;6303230;28;20727;-56
2022/11/03 09:50:13;;;;;;;11.07;4.70;;;11.40;1.00;;;;;;6306202;28;20236;-53
2022/11/03 09:53:16;;;;;;;11.93;5.17;;;11.50;1.00;;;;;;6295986;28;20284;-53
2022/11/03 09:56:24;;;;;;;6.73;4.37;;;11.60;1.00;;;;;;6297357;28;20256;-55
2022/11/03 09:59:27;;;;;;;6.27;4.30;;;11.70;1.00;;;;;;6297565;28;20234;-54
2022/11/03 10:02:37;;;;;;;9.03;5.40;;;11.80;1.00;;;;;;6301537;28;20347;-54
2022/11/03 10:05:42;;;;;;;5.43;4.43;;;11.80;1.00;;;;;;6302925;28;20736;-53
2022/11/03 10:08:46;;;;;;;5.83;4.60;;;11.90;1.00;;;;;;6292165;28;20240;-56
2022/11/03 10:11:52;;;;;;;5.13;4.63;;;12.00;1.00;;;;;;6293649;28;20233;-53
2022/11/03 10:14:55;;;;;;;6.87;4.50;;;12.10;1.00;;;;;;6305244;28;20236;-57
2022/11/03 10:17:58;;;;;;;4.23;4.00;;;12.30;1.00;;;;;;6298415;28;20256;-57
2022/11/03 10:21:05;;;;;;;7.23;4.20;;;12.40;1.00;;;;;;6299702;28;20591;-56
2022/11/03 10:24:11;;;;;;;4.30;4.00;;;12.50;1.00;;;;;;6298994;28;20429;-53
2022/11/03 10:27:25;;;;;;;9.97;4.00;;;12.50;1.00;;;;;;6285495;28;20242;-53
2022/11/03 10:30:28;;;;;;;6.73;3.80;;;12.50;1.00;;;;;;6294734;28;20233;-54
2022/11/03 10:33:36;;;;;;;6.60;4.30;;;12.50;1.00;;;;;;6302165;28;20244;-53
2022/11/03 10:36:39;;;;;;;7.33;4.13;;;12.60;1.00;;;;;;6301925;28;20263;-56
2022/11/03 10:39:42;;;;;;;7.23;4.63;;;12.70;1.00;;;;;;6308382;28;20388;-54
2022/11/03 10:42:58;;;;;;;12.50;4.87;;;12.50;1.00;;;;;;6301731;28;20243;-55
2022/11/03 10:46:14;;;;;;;7.23;4.30;;;12.60;1.00;;;;;;6290351;28;20859;-58
2022/11/03 10:49:38;;;;;;;5.93;3.93;;;12.60;1.00;;;;;;6300245;28;20713;-55
2022/11/03 10:52:45;;;;;;;6.00;4.50;;;12.80;1.00;;;;;;6294311;28;20240;-57
2022/11/03 10:55:56;;;;;;;5.13;3.73;;;12.90;1.00;;;;;;6290175;28;20244;-57
2022/11/03 10:59:01;;;;;;;3.93;3.57;;;12.90;1.00;;;;;;6299620;28;20717;-54
2022/11/03 11:02:15;;;;;;;7.33;3.87;;;13.00;1.00;;;;;;6285666;28;20256;-54
2022/11/03 11:05:24;;;;;;;6.67;4.00;;;13.00;1.00;;;;;;6292344;28;20243;-54
2022/11/03 11:08:27;;;;;;;6.53;3.73;;;13.00;1.00;;;;;;6296670;28;20233;-55
2022/11/03 11:11:33;;;;;;;6.33;3.80;;;13.00;1.00;;;;;;6291903;28;20629;-53
2022/11/03 11:14:50;;;;;;;3.90;3.60;;;13.00;1.00;;;;;;6289477;28;20237;-54
2022/11/03 11:17:53;;;;;;;6.03;4.13;;;13.00;1.00;;;;;;6282877;28;20229;-53
2022/11/03 11:20:56;;;;;;;6.30;4.00;;;13.10;1.00;;;;;;6292737;28;20615;-54
2022/11/03 11:23:59;;;;;;;4.90;4.37;;;13.10;1.00;;;;;;6289681;28;20237;-54
2022/11/03 11:27:02;;;;;;;6.67;5.03;;;13.20;1.00;;;;;;6296912;28;20248;-53
2022/11/03 11:30:27;;;;;;;13.40;5.80;;;13.10;1.00;;;;;;6290428;28;20242;-54
2022/11/03 11:33:33;;;;;;;6.70;4.80;;;13.00;1.00;;;;;;6297276;28;20237;-54
2022/11/03 11:36:37;;;;;;;9.97;4.90;;;13.00;1.00;;;;;;6282279;28;20263;-58
2022/11/03 11:39:43;;;;;;;6.50;5.10;;;12.90;1.00;;;;;;6295582;28;20262;-54
2022/11/03 11:43:24;;;;;;;8.03;5.13;;;13.00;1.00;;;;;;6294844;28;20247;-54
2022/11/03 11:46:41;;;;;;;9.93;4.80;;;13.00;1.00;;;;;;6301905;28;20681;-54
2022/11/03 11:49:44;;;;;;;7.50;4.93;;;13.00;1.00;;;;;;6301802;28;20237;-53
2022/11/03 11:52:51;;;;;;;6.20;4.83;;;13.00;1.00;;;;;;6292543;28;20608;-54
2022/11/03 11:55:56;;;;;;;8.43;4.43;;;12.90;1.00;;;;;;6300016;28;20233;-54
2022/11/03 11:58:59;;;;;;;7.17;4.10;;;12.90;1.00;;;;;;6297726;28;20253;-54
2022/11/03 12:02:19;;;;;;;6.67;4.47;;;12.90;1.00;;;;;;6301581;28;20245;-54
2022/11/03 12:05:25;;;;;;;9.03;5.00;;;12.80;1.00;;;;;;6305089;28;20256;-54
2022/11/03 12:08:30;;;;;;;5.60;4.43;;;12.70;1.00;;;;;;6285756;28;20337;-53
2022/11/03 12:11:44;;;;;;;8.67;4.70;;;12.70;1.00;;;;;;6300480;28;20234;-53
2022/11/03 12:14:49;;;;;;;10.00;5.53;;;12.80;1.00;;;;;;6290601;28;20229;-54
2022/11/03 12:17:53;;;;;;;8.93;5.53;;;12.80;1.00;;;;;;6297425;28;20232;-54
2022/11/03 12:20:56;;;;;;;9.13;5.10;;;12.80;1.00;;;;;;6296541;28;20739;-55
2022/11/03 12:23:59;;;;;;;6.73;4.10;;;12.80;1.00;;;;;;6287480;28;20751;-54
2022/11/03 12:27:03;;;;;;;6.77;4.20;;;12.70;1.00;;;;;;6295598;28;20236;-53
2022/11/03 12:30:12;;;;;;;7.47;4.40;;;12.70;1.00;;;;;;6303712;28;20226;-54
2022/11/03 12:33:17;;;;;;;4.37;3.63;;;12.70;1.00;;;;;;6295885;28;21013;-55
2022/11/03 12:36:20;;;;;;;9.97;4.13;;;12.70;1.00;;;;;;6302073;28;20625;-54
2022/11/03 12:39:22;;;;;;;5.40;3.93;;;12.80;1.00;;;;;;6307011;28;20263;-54
2022/11/03 12:42:25;;;;;;;5.50;4.87;;;12.70;1.00;;;;;;6292100;28;20241;-54
2022/11/03 12:45:29;;;;;;;11.77;5.83;;;12.80;1.00;;;;;;6295291;28;20252;-54
2022/11/03 12:48:33;;;;;;;4.53;4.10;;;12.90;1.00;;;;;;6290868;28;20229;-54
2022/11/03 12:51:35;;;;;;;7.57;4.43;;;12.90;1.00;;;;;;6288324;28;20249;-55
2022/11/03 12:54:41;;;;;;;6.37;4.53;;;13.00;1.00;;;;;;6305162;28;20237;-53
2022/11/03 12:57:45;;;;;;;5.00;4.23;;;13.00;1.00;;;;;;6289431;28;20742;-55
2022/11/03 13:00:49;;;;;;;8.77;4.50;;;13.00;1.00;;;;;;6296448;28;20248;-61
2022/11/03 13:03:59;;;;;;;8.33;4.27;;;13.00;1.00;;;;;;6299537;28;21008;-54
2022/11/03 13:07:02;;;;;;;5.50;5.00;;;13.10;1.00;;;;;;6291748;28;20243;-54
2022/11/03 13:10:06;;;;;;;9.03;4.60;;;13.10;1.00;;;;;;6289216;28;20237;-58
2022/11/03 13:13:09;;;;;;;7.60;3.90;;;13.10;1.00;;;;;;6299714;28;20233;-56
2022/11/03 13:16:12;;;;;;;6.70;4.83;;;13.00;1.00;;;;;;6298163;28;20244;-54
2022/11/03 13:19:16;;;;;;;7.50;4.50;;;13.00;1.00;;;;;;6290429;28;20348;-56
2022/11/03 13:22:20;;;;;;;6.20;4.90;;;12.90;1.00;;;;;;6310445;28;20377;-54
2022/11/03 13:25:23;;;;;;;5.50;4.37;;;12.90;1.00;;;;;;6296966;28;20248;-54
2022/11/03 13:28:26;;;;;;;11.57;4.77;;;13.00;1.00;;;;;;6303665;28;20666;-54
2022/11/03 13:31:30;;;;;;;7.50;4.87;;;13.00;1.00;;;;;;6309902;28;20732;-54
2022/11/03 13:34:34;;;;;;;11.07;4.67;;;13.00;1.00;;;;;;6287445;28;20543;-54
2022/11/03 13:37:37;;;;;;;4.83;4.30;;;13.00;1.00;;;;;;6297047;28;20236;-53
2022/11/03 13:40:39;;;;;;;5.33;3.93;;;13.10;1.00;;;;;;6307434;28;20232;-55
2022/11/03 13:44:03;;;;;;;7.87;4.40;;;13.10;1.00;;;;;;6296216;28;20336;-54
2022/11/03 13:47:08;;;;;;;4.13;3.83;;;13.10;1.00;;;;;;6312889;27;20228;-54
2022/11/03 13:50:15;;;;;;;8.77;4.40;;;13.10;1.00;;;;;;6296619;28;20225;-54
2022/11/03 13:53:19;;;;;;;6.10;3.90;;;13.20;1.00;;;;;;6291628;28;20721;-55
2022/11/03 13:56:42;;;;;;;7.63;4.47;;;13.20;1.00;;;;;;6291788;28;20241;-55
2022/11/03 14:00:06;;;;;;;4.50;4.10;;;13.20;1.00;;;;;;6297567;28;20626;-55
2022/11/03 14:03:09;;;;;;;7.70;4.77;;;13.10;1.00;;;;;;6304187;28;20233;-61
2022/11/03 14:06:33;;;;;;;9.03;5.60;;;13.20;1.00;;;;;;6302306;28;20403;-53
2022/11/03 14:09:36;;;;;;;5.67;4.47;;;13.10;1.00;;;;;;6292556;28;20776;-55
2022/11/03 14:12:43;;;;;;;8.63;4.63;;;13.10;1.00;;;;;;6301648;28;20233;-55
2022/11/03 14:15:56;;;;;;;8.07;4.50;;;13.10;1.00;;;;;;6307050;27;20248;-54
2022/11/03 14:18:59;;;;;;;6.60;4.33;;;13.00;1.00;;;;;;6301320;28;20403;-54
2022/11/03 14:22:03;;;;;;;5.37;4.77;;;13.00;1.00;;;;;;6287515;28;20237;-55
2022/11/03 14:25:07;;;;;;;6.77;4.50;;;13.00;1.00;;;;;;6287154;28;20248;-55
2022/11/03 14:28:10;;;;;;;4.20;3.90;;;12.90;1.00;;;;;;6294661;28;20241;-54
2022/11/03 14:31:13;;;;;;;5.00;4.40;;;12.90;1.00;;;;;;6304880;28;20753;-54
2022/11/03 14:34:16;;;;;;;4.80;4.20;;;12.90;1.00;;;;;;6302036;28;20336;-56
2022/11/03 14:37:21;;;;;;;7.70;4.37;;;12.80;1.00;;;;;;6299251;28;20232;-54
2022/11/03 14:43:45;;;;;;;4.30;3.90;;;12.80;1.00;;;;;;6288939;28;20238;-55
2022/11/03 14:46:48;;;;;;;4.20;3.80;;;12.70;1.00;;;;;;6299992;28;20240;-55
2022/11/03 14:49:51;;;;;;;7.13;5.93;;;12.60;1.00;;;;;;6309172;28;20709;-53
2022/11/03 14:52:55;;;;;;;5.60;4.70;;;12.60;1.00;;;;;;6294168;28;20236;-54
2022/11/03 14:56:01;;;;;;;7.27;4.60;;;12.50;1.00;;;;;;6295520;28;20393;-55
2022/11/03 14:59:04;;;;;;;6.03;4.83;;;12.40;1.00;;;;;;6303281;28;20421;-53
2022/11/03 15:02:07;;;;;;;6.43;4.43;;;12.40;1.00;;;;;;6298842;28;20243;-54
2022/11/03 15:05:42;;;;;;;6.47;4.77;;;12.30;1.00;;;;;;6308848;28;20237;-54
2022/11/03 15:08:36;;;;;;;5.07;3.90;;;12.30;1.00;;;;;;6299262;28;20479;-57
2022/11/03 15:11:38;;;;;;;6.33;4.70;;;12.30;1.00;;;;;;6299898;28;20232;-53
2022/11/03 15:14:41;;;;;;;6.63;4.93;;;12.20;1.00;;;;;;6305823;28;20236;-54
2022/11/03 15:17:44;;;;;;;5.83;4.70;;;12.10;1.00;;;;;;6284948;28;20244;-54
2022/11/03 15:20:48;;;;;;;5.53;4.97;;;12.10;1.00;;;;;;6300309;28;20275;-57
2022/11/03 15:23:53;;;;;;;9.10;4.43;;;12.00;1.00;;;;;;6292533;28;20243;-54
2022/11/03 15:27:16;;;;;;;8.20;5.27;;;11.90;1.00;;;;;;6309028;28;20521;-53
2022/11/03 15:30:20;;;;;;;7.27;4.50;;;11.90;1.00;;;;;;6295942;28;20633;-54
2022/11/03 15:33:23;;;;;;;9.53;5.40;;;11.80;1.00;;;;;;6292122;28;20240;-53
2022/11/03 15:36:26;;;;;;;5.90;5.40;;;11.80;1.00;;;;;;6278602;28;20757;-56
2022/11/03 15:39:30;;;;;;;9.93;5.40;;;11.70;1.00;;;;;;6292806;28;20237;-53
2022/11/03 15:42:35;;;;;;;7.93;5.00;;;11.60;1.00;;;;;;6288376;28;20252;-54
2022/11/03 15:45:39;;;;;;;6.17;5.37;;;11.60;1.00;;;;;;6295532;28;20518;-55
2022/11/03 15:48:44;;;;;;;5.60;5.10;;;11.50;1.00;;;;;;6295110;28;20851;-54
2022/11/03 15:51:47;;;;;;;6.87;5.17;;;11.50;1.00;;;;;;6291138;28;20732;-54
2022/11/03 15:54:51;;;;;;;6.10;5.50;;;11.40;1.00;;;;;;6302397;28;20243;-54
2022/11/03 15:57:54;;;;;;;8.73;5.13;;;11.40;1.00;;;;;;6296824;28;20232;-53
2022/11/03 16:00:57;;;;;;;8.13;5.70;;;11.40;1.00;;;;;;6295333;28;20236;-53
2022/11/03 16:04:00;;;;;;;5.47;4.97;;;11.30;1.00;;;;;;6298154;28;20237;-54
2022/11/03 16:07:03;;;;;;;10.67;5.87;;;11.30;1.00;;;;;;6294800;28;20248;-53
2022/11/03 16:10:12;;;;;;;6.63;5.20;;;11.30;1.00;;;;;;6301035;28;20348;-55
2022/11/03 16:13:14;;;;;;;5.87;4.80;;;11.30;1.00;;;;;;6300030;28;20736;-53
2022/11/03 16:16:17;;;;;;;7.20;6.00;;;11.30;1.00;;;;;;6303693;28;20459;-55
2022/11/03 16:19:20;;;;;;;6.20;5.40;;;11.30;1.00;;;;;;6294097;28;20377;-53
2022/11/03 16:22:23;;;;;;;5.87;5.37;;;11.30;1.00;;;;;;6296485;28;20510;-53
2022/11/03 16:25:27;;;;;;;10.17;6.53;;;11.30;1.00;;;;;;6299193;28;20232;-53
2022/11/03 16:28:30;;;;;;;7.83;5.73;;;11.30;1.00;;;;;;6301258;28;20233;-61
2022/11/03 16:31:33;;;;;;;6.40;5.80;;;11.30;1.00;;;;;;6302661;28;20633;-54
2022/11/03 16:34:35;;;;;;;7.23;5.70;;;11.40;1.00;;;;;;6298024;28;20312;-55
2022/11/03 16:37:38;;;;;;;7.87;7.07;;;11.30;1.00;;;;;;6301840;28;20712;-60
2022/11/03 16:40:44;;;;;;;7.13;6.30;;;11.20;1.00;;;;;;6303824;28;20371;-55